Time;durP1;ratioP1;P1;durP2;ratioP2;P2;SDS_P1;SDS_P2;PMS_P1;PMS_P2;Temp;Humidity;BMP_temperature;BMP_pressure;BME280_temperature;BME280_humidity;BME280_pressure;Samples;Min_cycle;Max_cycle;Signal;HPM_P1;HPM_P2
2021/06/23 00:00:34;;;;;;;15.08;6.87;;;;;;;17.02;82.55;100622.67;1778223;80;21073;-71
2021/06/23 00:03:04;;;;;;;15.63;6.47;;;;;;;17.02;82.54;100634.80;1792148;80;20994;-71
2021/06/23 00:05:31;;;;;;;17.05;6.20;;;;;;;17.01;82.52;100631.78;1791905;80;21371;-68
2021/06/23 00:07:58;;;;;;;12.07;6.92;;;;;;;17.03;82.54;100632.39;1792782;78;21481;-68
2021/06/23 00:10:25;;;;;;;13.38;6.10;;;;;;;17.03;82.51;100629.70;1807593;78;20990;-68
2021/06/23 00:12:53;;;;;;;15.23;6.65;;;;;;;17.02;82.50;100617.28;1824382;78;20979;-68
2021/06/23 00:15:20;;;;;;;16.17;6.85;;;;;;;17.03;82.48;100622.95;1791975;80;20970;-68
2021/06/23 00:17:47;;;;;;;16.48;6.75;;;;;;;17.04;82.44;100634.56;1824429;78;21557;-68
2021/06/23 00:20:15;;;;;;;9.55;5.95;;;;;;;17.04;82.42;100639.45;1780631;80;20981;-68
2021/06/23 00:22:42;;;;;;;13.70;6.67;;;;;;;17.03;82.40;100636.98;1759054;81;21005;-68
2021/06/23 00:25:11;;;;;;;15.43;7.10;;;;;;;17.02;82.37;100624.53;1792151;80;21006;-68
2021/06/23 00:27:38;;;;;;;13.08;5.87;;;;;;;17.01;82.37;100626.90;1758986;81;21104;-68
2021/06/23 00:30:06;;;;;;;14.55;5.95;;;;;;;16.97;82.34;100627.32;1801365;78;20971;-68
2021/06/23 00:32:34;;;;;;;12.20;5.28;;;;;;;16.95;82.30;100627.22;1824456;78;21480;-68
2021/06/23 00:35:03;;;;;;;10.82;5.50;;;;;;;16.95;82.28;100629.91;1792034;80;20978;-68
2021/06/23 00:37:30;;;;;;;13.10;6.03;;;;;;;16.93;82.23;100632.80;1824496;78;21436;-68
2021/06/23 00:39:58;;;;;;;17.77;6.15;;;;;;;16.90;82.22;100632.38;1793635;79;21505;-68
2021/06/23 00:42:25;;;;;;;10.53;5.67;;;;;;;16.88;82.18;100631.77;1825845;78;21062;-68
2021/06/23 00:44:53;;;;;;;11.80;5.53;;;;;;;16.86;82.15;100631.13;1795553;79;20990;-68
2021/06/23 00:47:20;;;;;;;18.55;6.70;;;;;;;16.88;82.17;100629.08;1824571;78;21522;-68
2021/06/23 00:49:47;;;;;;;15.10;7.37;;;;;;;16.87;82.13;100632.80;1772766;79;21058;-68
2021/06/23 00:52:14;;;;;;;17.30;7.00;;;;;;;16.82;82.11;100633.41;1795528;79;21013;-68
2021/06/23 00:54:49;;;;;;;11.78;7.10;;;;;;;16.79;82.12;100639.71;1795584;79;21017;-68
2021/06/23 00:57:17;;;;;;;14.18;6.62;;;;;;;16.78;82.15;100634.03;1762312;81;21502;-68
2021/06/23 00:59:44;;;;;;;17.12;7.00;;;;;;;16.74;82.14;100630.09;1798887;78;21062;-68
2021/06/23 01:02:12;;;;;;;14.43;6.25;;;;;;;16.71;82.16;100627.81;1827915;78;20959;-68
2021/06/23 01:04:41;;;;;;;17.10;6.60;;;;;;;16.68;82.19;100631.72;1795630;79;21045;-68
2021/06/23 01:07:08;;;;;;;19.57;6.67;;;;;;;16.67;82.23;100626.55;1828385;78;21039;-68
2021/06/23 01:09:35;;;;;;;14.70;6.42;;;;;;;16.63;82.22;100627.98;1774981;79;21024;-68
2021/06/23 01:12:31;;;;;;;14.55;6.00;;;;;;;16.59;82.22;100630.77;1762520;81;21044;-68
2021/06/23 01:15:01;;;;;;;19.40;7.67;;;;;;;16.57;82.25;100638.23;1794357;79;21605;-68
2021/06/23 01:17:30;;;;;;;12.95;6.17;;;;;;;16.55;82.29;100643.78;1762690;81;21033;-68
2021/06/23 01:20:07;;;;;;;13.03;6.58;;;;;;;16.54;82.32;100645.34;1823315;78;20994;-68
2021/06/23 01:22:36;;;;;;;22.75;7.12;;;;;;;16.52;82.33;100641.48;1795363;79;20985;-68
2021/06/23 01:25:05;;;;;;;11.25;5.83;;;;;;;16.52;82.35;100639.31;1802600;78;21030;-68
2021/06/23 01:27:32;;;;;;;16.17;6.60;;;;;;;16.53;82.36;100636.94;1795539;79;21427;-68
2021/06/23 01:29:59;;;;;;;13.15;5.70;;;;;;;16.54;82.37;100639.95;1800234;78;20978;-68
2021/06/23 01:32:26;;;;;;;18.67;6.53;;;;;;;16.54;82.37;100629.98;1795403;79;21446;-68
2021/06/23 01:34:53;;;;;;;11.97;6.20;;;;;;;16.54;82.37;100629.98;1795580;79;21328;-68
2021/06/23 01:37:20;;;;;;;16.35;6.75;;;;;;;16.58;82.40;100631.79;1794607;79;21832;-68
2021/06/23 01:39:47;;;;;;;13.00;6.25;;;;;;;16.58;82.39;100635.83;1827451;78;20990;-67
2021/06/23 01:42:14;;;;;;;15.13;6.80;;;;;;;16.58;82.40;100643.91;1795362;79;20986;-67
2021/06/23 01:44:41;;;;;;;15.55;6.78;;;;;;;16.57;82.39;100652.50;1828105;78;21554;-68
2021/06/23 01:47:08;;;;;;;10.40;5.67;;;;;;;16.58;82.39;100658.20;1771036;79;20992;-68
2021/06/23 01:49:35;;;;;;;20.57;6.17;;;;;;;16.58;82.38;100655.52;1762442;81;21022;-68
2021/06/23 01:52:03;;;;;;;11.48;5.60;;;;;;;16.57;82.37;100657.08;1795644;79;21436;-68
2021/06/23 01:54:30;;;;;;;23.32;5.92;;;;;;;16.55;82.39;100655.89;1763908;81;21455;-67
2021/06/23 01:56:57;;;;;;;13.60;6.42;;;;;;;16.55;82.37;100656.41;1764304;79;21065;-68
2021/06/23 01:59:25;;;;;;;20.17;5.70;;;;;;;16.50;82.38;100645.72;1777149;80;21062;-68
2021/06/23 02:02:20;;;;;;;13.50;6.25;;;;;;;16.46;82.37;100647.19;1771030;79;21005;-68
2021/06/23 02:05:06;;;;;;;10.45;5.67;;;;;;;16.44;82.40;100653.27;1795399;79;21061;-67
2021/06/23 02:08:00;;;;;;;11.88;6.50;;;;;;;16.39;82.40;100657.09;1825452;78;20975;-68
2021/06/23 02:10:57;;;;;;;14.87;5.80;;;;;;;16.36;82.41;100657.47;1827366;78;20971;-68
2021/06/23 02:14:09;;;;;;;11.83;6.28;;;;;;;16.32;82.39;100649.51;1744405;81;21072;-67
2021/06/23 02:16:37;;;;;;;10.03;5.55;;;;;;;16.29;82.38;100656.61;1763370;80;21014;-67
2021/06/23 02:19:05;;;;;;;10.72;5.97;;;;;;;16.28;82.39;100654.98;1762423;81;20993;-68
2021/06/23 02:21:38;;;;;;;13.10;5.12;;;;;;;16.27;82.41;100659.20;1795650;79;21505;-67
2021/06/23 02:24:07;;;;;;;13.88;6.08;;;;;;;16.26;82.42;100665.09;1764043;81;20989;-68
2021/06/23 02:26:34;;;;;;;9.63;5.00;;;;;;;16.28;82.42;100660.36;1764129;79;21385;-67
2021/06/23 02:29:04;;;;;;;13.25;5.55;;;;;;;16.28;82.42;100663.05;1777743;79;21050;-68
2021/06/23 02:31:31;;;;;;;18.45;6.45;;;;;;;16.31;82.43;100669.88;1777668;80;21722;-67
2021/06/23 02:33:58;;;;;;;9.68;6.05;;;;;;;16.33;82.46;100672.69;1777650;80;20983;-67
2021/06/23 02:36:25;;;;;;;16.42;6.42;;;;;;;16.36;82.43;100666.09;1793654;79;20987;-68
2021/06/23 02:38:52;;;;;;;15.03;6.30;;;;;;;16.35;82.43;100671.98;1809559;79;21047;-67
2021/06/23 02:41:19;;;;;;;10.70;5.45;;;;;;;16.36;82.40;100679.00;1811014;79;21000;-68
2021/06/23 02:43:46;;;;;;;12.82;5.30;;;;;;;16.34;82.39;100683.77;1811182;79;21439;-68
2021/06/23 02:46:13;;;;;;;11.60;5.78;;;;;;;16.34;82.39;100686.97;1798337;79;21038;-68
2021/06/23 02:48:40;;;;;;;13.48;4.80;;;;;;;16.33;82.38;100690.17;1779614;80;21758;-67
2021/06/23 02:51:21;;;;;;;11.10;5.37;;;;;;;16.33;82.38;100692.87;1779587;80;21014;-68
2021/06/23 02:53:49;;;;;;;13.10;5.83;;;;;;;16.35;82.36;100692.17;1778098;78;21018;-68
2021/06/23 02:56:17;;;;;;;10.45;5.60;;;;;;;16.37;82.34;100700.86;1824581;78;21031;-68
2021/06/23 02:58:44;;;;;;;14.07;5.28;;;;;;;16.39;82.35;100702.86;1792236;80;21042;-68
2021/06/23 03:01:12;;;;;;;8.70;5.10;;;;;;;16.41;82.33;100703.48;1824684;78;20990;-67
2021/06/23 03:03:40;;;;;;;13.55;5.60;;;;;;;16.45;82.31;100704.74;1792466;80;21033;-67
2021/06/23 03:06:07;;;;;;;8.33;4.72;;;;;;;16.48;82.30;100704.34;1761521;80;21078;-67
2021/06/23 03:08:35;;;;;;;11.08;5.62;;;;;;;16.52;82.29;100706.62;1792273;80;20998;-67
2021/06/23 03:11:03;;;;;;;11.97;5.20;;;;;;;16.56;82.23;100706.57;1792070;80;20966;-68
2021/06/23 03:13:30;;;;;;;17.90;4.87;;;;;;;16.63;82.20;100706.08;1759373;81;21050;-68
2021/06/23 03:15:57;;;;;;;7.75;4.83;;;;;;;16.65;82.15;100704.00;1821039;78;21007;-67
2021/06/23 03:18:24;;;;;;;12.58;4.90;;;;;;;16.63;82.07;100700.70;1824568;78;21031;-67
2021/06/23 03:20:51;;;;;;;14.53;5.03;;;;;;;16.65;82.06;100698.62;1792251;80;21018;-67
2021/06/23 03:23:18;;;;;;;16.60;5.80;;;;;;;16.69;81.97;100703.41;1824725;78;20967;-68
2021/06/23 03:25:45;;;;;;;10.88;4.35;;;;;;;16.87;82.01;100702.84;1767272;80;20981;-68
2021/06/23 03:28:12;;;;;;;11.40;4.20;;;;;;;17.14;82.09;100699.16;1759419;81;20998;-67
2021/06/23 03:30:40;;;;;;;10.68;4.05;;;;;;;17.71;82.17;100699.11;1792267;80;21026;-68
2021/06/23 03:33:07;;;;;;;11.20;4.25;;;;;;;18.71;82.09;100700.00;1759135;81;21486;-68
2021/06/23 03:35:34;;;;;;;9.40;4.20;;;;;;;19.47;81.51;100705.34;1815426;78;21009;-68
2021/06/23 03:38:01;;;;;;;11.12;4.72;;;;;;;19.50;80.70;100707.61;1824540;78;20955;-68
2021/06/23 03:40:28;;;;;;;11.83;4.83;;;;;;;19.78;80.56;100703.93;1791831;79;21060;-68
2021/06/23 03:42:55;;;;;;;19.70;4.30;;;;;;;20.07;79.96;100710.52;1824528;78;21258;-68
2021/06/23 03:45:22;;;;;;;17.67;4.00;;;;;;;20.02;79.40;100723.38;1790777;80;20890;-68
2021/06/23 03:47:50;;;;;;;10.43;4.50;;;;;;;19.66;78.91;100726.02;1824593;78;21010;-68
2021/06/23 03:50:17;;;;;;;11.65;4.53;;;;;;;19.79;78.84;100713.20;1792009;80;21787;-68
2021/06/23 03:52:44;;;;;;;12.07;3.90;;;;;;;19.65;78.26;100712.17;1824551;78;21038;-68
2021/06/23 03:55:25;;;;;;;12.70;4.15;;;;;;;19.18;77.71;100720.30;1791703;80;20996;-68
2021/06/23 03:57:50;;;;;;;6.95;4.47;;;;;;;18.72;77.50;100721.91;1758832;81;20978;-68
2021/06/23 04:00:19;;;;;;;9.53;4.00;;;;;;;18.31;77.34;100732.53;1759254;81;21074;-67
2021/06/23 04:02:46;;;;;;;7.53;4.00;;;;;;;18.05;77.24;100737.97;1759198;81;21475;-68
2021/06/23 04:05:13;;;;;;;11.40;4.05;;;;;;;17.91;77.25;100744.42;1759945;80;20978;-68
2021/06/23 04:07:40;;;;;;;13.32;3.90;;;;;;;17.80;77.16;100741.03;1759125;81;21493;-68
2021/06/23 04:10:10;;;;;;;9.13;3.87;;;;;;;17.73;77.13;100742.36;1792217;78;21006;-68
2021/06/23 04:12:37;;;;;;;15.58;4.50;;;;;;;17.71;77.06;100751.20;1759029;81;21060;-68
2021/06/23 04:15:06;;;;;;;11.05;4.80;;;;;;;17.60;76.94;100753.16;1808425;78;21022;-68
2021/06/23 04:17:33;;;;;;;15.08;3.90;;;;;;;17.53;76.94;100759.55;1824677;78;21046;-68
2021/06/23 04:20:00;;;;;;;9.08;4.22;;;;;;;17.42;76.92;100765.03;1824527;78;21573;-68
2021/06/23 04:22:27;;;;;;;7.87;3.65;;;;;;;17.37;76.90;100762.98;1789103;80;20990;-68
2021/06/23 04:24:54;;;;;;;10.40;3.95;;;;;;;17.34;76.89;100762.04;1758965;81;21079;-68
2021/06/23 04:27:22;;;;;;;8.00;3.70;;;;;;;17.27;76.85;100766.59;1792277;80;20990;-69
2021/06/23 04:29:49;;;;;;;11.85;4.33;;;;;;;17.20;76.82;100772.48;1759235;81;21494;-67
2021/06/23 04:32:16;;;;;;;11.48;4.17;;;;;;;17.19;76.84;100769.47;1807298;78;21046;-68
2021/06/23 04:34:44;;;;;;;13.05;4.20;;;;;;;17.19;76.86;100774.02;1824180;78;20951;-68
2021/06/23 04:37:11;;;;;;;8.38;4.12;;;;;;;17.15;76.89;100783.03;1792081;80;20994;-68
2021/06/23 04:39:38;;;;;;;13.20;4.45;;;;;;;17.10;76.88;100786.84;1824509;78;21507;-68
2021/06/23 04:42:06;;;;;;;12.00;3.67;;;;;;;17.15;76.91;100783.55;1783246;80;21068;-67
2021/06/23 04:44:33;;;;;;;9.98;3.87;;;;;;;17.16;76.92;100780.66;1759465;81;21498;-68
2021/06/23 04:47:01;;;;;;;13.98;4.20;;;;;;;17.18;76.92;100789.87;1791843;80;21014;-68
2021/06/23 04:49:28;;;;;;;11.30;4.33;;;;;;;17.18;76.91;100801.48;1783701;80;21044;-68
2021/06/23 04:51:55;;;;;;;13.10;3.90;;;;;;;17.25;76.91;100799.64;1787261;80;21108;-68
2021/06/23 04:54:22;;;;;;;10.18;4.00;;;;;;;17.28;76.89;100805.97;1798883;78;20979;-68
2021/06/23 04:56:49;;;;;;;10.43;4.70;;;;;;;17.37;76.86;100814.20;1803357;78;20971;-68
2021/06/23 04:59:16;;;;;;;11.00;4.35;;;;;;;17.43;76.84;100816.08;1811301;79;21472;-68
2021/06/23 05:01:43;;;;;;;13.93;4.62;;;;;;;17.45;76.85;100819.39;1821067;78;21054;-68
2021/06/23 05:04:10;;;;;;;6.45;3.83;;;;;;;17.48;76.78;100825.75;1822898;78;21007;-68
2021/06/23 05:06:37;;;;;;;12.30;5.12;;;;;;;17.57;76.78;100824.22;1823088;78;21077;-68
2021/06/23 05:09:06;;;;;;;12.13;5.08;;;;;;;17.69;76.72;100823.94;1822690;78;21034;-68
2021/06/23 05:11:35;;;;;;;22.40;5.78;;;;;;;17.85;76.62;100820.83;1822742;78;20990;-68
2021/06/23 05:14:02;;;;;;;40.20;8.13;;;;;;;18.10;76.59;100819.17;1796969;78;20994;-68
2021/06/23 05:16:29;;;;;;;21.77;5.40;;;;;;;18.38;76.50;100825.16;1794927;79;21018;-68
2021/06/23 05:18:57;;;;;;;15.80;5.08;;;;;;;18.48;76.45;100822.85;1795057;78;21053;-68
2021/06/23 05:21:24;;;;;;;12.55;4.47;;;;;;;18.45;76.36;100833.25;1769541;79;21044;-68
2021/06/23 05:23:51;;;;;;;7.10;3.65;;;;;;;18.46;76.20;100833.05;1795167;79;20986;-68
2021/06/23 05:26:18;;;;;;;10.72;4.70;;;;;;;18.56;76.11;100837.20;1764319;81;21038;-68
2021/06/23 05:28:45;;;;;;;12.10;4.80;;;;;;;18.58;75.91;100825.14;1794473;78;21003;-68
2021/06/23 05:31:12;;;;;;;10.93;6.08;;;;;;;18.53;75.77;100823.61;1789483;79;21028;-68
2021/06/23 05:33:39;;;;;;;9.45;4.45;;;;;;;18.53;75.60;100822.27;1782326;80;21452;-68
2021/06/23 05:36:07;;;;;;;11.20;4.87;;;;;;;18.55;75.40;100824.73;1792300;80;20966;-68
2021/06/23 05:38:34;;;;;;;12.15;5.00;;;;;;;18.50;75.10;100825.88;1791860;80;21470;-68
2021/06/23 05:41:01;;;;;;;20.00;4.37;;;;;;;18.57;75.11;100829.42;1767504;80;21041;-68
2021/06/23 05:43:28;;;;;;;19.90;5.25;;;;;;;18.69;74.98;100838.00;1764579;79;21081;-68
2021/06/23 05:45:55;;;;;;;14.03;4.72;;;;;;;18.73;74.83;100835.70;1792408;78;21053;-68
2021/06/23 05:48:22;;;;;;;9.95;4.05;;;;;;;18.83;74.76;100838.27;1791794;80;20966;-68
2021/06/23 05:50:49;;;;;;;10.45;4.53;;;;;;;19.06;74.61;100849.12;1761307;80;21049;-67
2021/06/23 05:53:16;;;;;;;14.05;4.35;;;;;;;19.34;74.40;100850.45;1796841;79;20979;-68
2021/06/23 05:55:43;;;;;;;11.50;3.50;;;;;;;19.78;74.21;100846.86;1793079;79;21590;-68
2021/06/23 05:58:10;;;;;;;15.58;4.92;;;;;;;20.30;73.95;100859.17;1788785;80;21314;-68
2021/06/23 06:00:38;;;;;;;19.62;3.77;;;;;;;20.87;73.53;100855.78;1812266;78;21034;-68
2021/06/23 06:03:05;;;;;;;38.80;22.27;;;;;;;21.05;73.10;100857.14;1810326;78;21102;-68
2021/06/23 06:05:32;;;;;;;56.73;37.17;;;;;;;20.83;72.67;100853.22;1762412;80;21055;-69
2021/06/23 06:07:59;;;;;;;36.60;10.08;;;;;;;20.49;72.23;100864.64;1798260;78;21020;-69
2021/06/23 06:10:27;;;;;;;10.38;4.45;;;;;;;20.32;71.97;100866.58;1797986;78;21138;-69
2021/06/23 06:12:54;;;;;;;13.03;3.75;;;;;;;20.33;71.70;100866.89;1792517;78;21445;-69
2021/06/23 06:15:21;;;;;;;15.03;4.28;;;;;;;20.39;71.38;100868.70;1791059;78;21007;-68
2021/06/23 06:17:48;;;;;;;8.68;4.20;;;;;;;20.36;71.12;100871.86;1771806;78;21002;-69
2021/06/23 06:20:15;;;;;;;10.38;3.52;;;;;;;20.38;70.97;100862.97;1786462;79;21053;-68
2021/06/23 06:22:42;;;;;;;10.68;3.42;;;;;;;20.57;70.66;100872.48;1799239;78;22025;-69
2021/06/23 06:25:11;;;;;;;12.75;3.80;;;;;;;20.71;70.38;100872.66;1792221;80;20974;-68
2021/06/23 06:27:38;;;;;;;11.45;3.65;;;;;;;20.82;70.10;100867.84;1824571;78;20983;-69
2021/06/23 06:30:07;;;;;;;12.18;3.47;;;;;;;21.10;69.84;100870.03;1792246;80;20898;-69
2021/06/23 06:32:34;;;;;;;33.98;5.28;;;;;;;21.14;69.33;100879.41;1814573;78;21042;-69
2021/06/23 06:35:01;;;;;;;14.60;4.15;;;;;;;21.04;69.10;100881.23;1759148;81;21487;-69
2021/06/23 06:37:29;;;;;;;13.03;3.55;;;;;;;21.33;68.84;100884.57;1809457;78;21455;-69
2021/06/23 06:39:56;;;;;;;8.55;3.30;;;;;;;21.49;68.47;100895.86;1824829;78;20959;-69
2021/06/23 06:42:23;;;;;;;12.98;3.35;;;;;;;21.59;68.07;100898.33;1816382;77;20990;-68
2021/06/23 06:44:50;;;;;;;11.35;3.52;;;;;;;21.72;67.61;100895.95;1815103;77;21028;-68
2021/06/23 06:47:17;;;;;;;73.35;11.60;;;;;;;21.73;67.33;100901.16;1816195;77;21523;-68
2021/06/23 06:49:44;;;;;;;13.18;3.77;;;;;;;21.81;67.06;100902.17;1817487;78;21006;-68
2021/06/23 06:52:11;;;;;;;14.87;4.85;;;;;;;21.79;66.66;100902.11;1814715;78;21039;-68
2021/06/23 06:54:38;;;;;;;13.58;5.08;;;;;;;21.97;66.42;100903.44;1816522;77;20978;-68
2021/06/23 06:57:05;;;;;;;10.60;3.80;;;;;;;21.78;65.90;100901.80;1813249;78;21055;-67
2021/06/23 06:59:33;;;;;;;9.88;4.08;;;;;;;21.60;65.51;100911.37;1817223;77;21391;-68
2021/06/23 07:02:00;;;;;;;10.10;3.17;;;;;;;21.55;65.14;100909.86;1814807;78;20990;-68
2021/06/23 07:04:27;;;;;;;8.70;3.42;;;;;;;21.69;64.78;100920.84;1819052;77;21011;-67
2021/06/23 07:06:54;;;;;;;7.75;4.00;;;;;;;21.89;64.55;100921.39;1819482;77;20983;-67
2021/06/23 07:09:21;;;;;;;5.95;3.20;;;;;;;21.94;64.02;100918.84;1817055;77;21831;-67
2021/06/23 07:11:48;;;;;;;8.40;3.30;;;;;;;21.92;63.67;100916.88;1812608;77;21566;-68
2021/06/23 07:14:15;;;;;;;9.05;3.22;;;;;;;22.06;63.53;100916.17;1813925;77;21067;-69
2021/06/23 07:16:43;;;;;;;10.18;3.27;;;;;;;22.24;63.34;100916.91;1813857;78;21012;-69
2021/06/23 07:19:10;;;;;;;16.97;4.00;;;;;;;22.50;63.17;100914.81;1810453;77;20993;-69
2021/06/23 07:21:37;;;;;;;6.17;3.30;;;;;;;22.41;62.87;100909.72;1809717;77;20879;-70
2021/06/23 07:24:05;;;;;;;10.53;3.50;;;;;;;22.21;62.60;100914.66;1808136;78;21706;-69
2021/06/23 07:26:32;;;;;;;9.13;3.72;;;;;;;22.04;62.48;100915.56;1817801;77;20959;-70
2021/06/23 07:29:03;;;;;;;8.73;3.17;;;;;;;21.90;62.46;100916.30;1780885;79;21000;-69
2021/06/23 07:34:18;;;;;;;39.38;5.42;;;;;;;21.93;62.14;100925.33;1816158;77;21517;-69
2021/06/23 07:36:35;;;;;;;10.78;2.98;;;;;;;21.78;61.98;100924.36;1814872;77;22084;-69
2021/06/23 07:39:00;;;;;;;8.55;2.80;;;;;;;21.70;61.83;100933.38;1816697;78;21035;-70
2021/06/23 07:41:27;;;;;;;10.88;3.17;;;;;;;21.59;61.60;100935.50;1810466;77;21530;-70
2021/06/23 07:43:54;;;;;;;9.35;2.50;;;;;;;21.49;61.63;100931.15;1816770;77;21028;-69
2021/06/23 07:46:21;;;;;;;7.85;3.40;;;;;;;21.73;61.58;100927.48;1810414;78;20877;-69
2021/06/23 07:48:51;;;;;;;8.50;3.47;;;;;;;21.93;61.54;100927.22;1813561;78;21575;-72
2021/06/23 07:51:26;;;;;;;13.88;3.25;;;;;;;22.06;61.31;100927.84;1810855;78;21026;-69
2021/06/23 08:09:51;;;;;;;6.85;2.72;;;;;;;22.74;59.81;100911.06;1779478;80;21002;-69
2021/06/23 08:12:17;;;;;;;11.78;3.17;;;;;;;22.79;59.79;100913.91;1778117;78;21041;-69
2021/06/23 08:14:44;;;;;;;12.40;5.05;;;;;;;22.84;59.45;100912.65;1805910;78;21456;-69
2021/06/23 08:17:11;;;;;;;10.78;3.70;;;;;;;22.78;59.43;100909.53;1781387;80;20978;-69
2021/06/23 08:19:38;;;;;;;13.30;3.42;;;;;;;23.03;59.41;100921.51;1799236;78;20955;-69
2021/06/23 08:22:10;;;;;;;9.25;3.17;;;;;;;23.21;59.17;100928.17;1814642;78;21021;-69
2021/06/23 08:24:35;;;;;;;8.28;3.20;;;;;;;23.34;59.03;100928.72;1806825;77;20979;-69
2021/06/23 08:27:02;;;;;;;7.83;3.70;;;;;;;23.48;58.87;100923.03;1780111;79;21709;-69
2021/06/23 08:29:29;;;;;;;6.00;3.12;;;;;;;23.60;58.78;100916.48;1805059;78;20984;-69
2021/06/23 08:31:56;;;;;;;7.45;3.50;;;;;;;23.52;58.68;100910.59;1777006;79;21014;-69
2021/06/23 08:34:25;;;;;;;7.83;3.33;;;;;;;23.51;58.61;100913.01;1809643;78;20998;-69
2021/06/23 08:36:53;;;;;;;8.48;3.12;;;;;;;23.52;58.39;100910.59;1781676;79;21003;-69
2021/06/23 08:39:20;;;;;;;5.97;3.20;;;;;;;23.37;58.02;100906.45;1783560;78;21806;-69
2021/06/23 08:41:47;;;;;;;8.43;3.35;;;;;;;23.22;57.94;100908.86;1779594;79;20944;-69
2021/06/23 08:44:14;;;;;;;9.63;3.30;;;;;;;23.17;57.98;100915.58;1776700;80;20984;-69
2021/06/23 08:46:41;;;;;;;18.50;3.92;;;;;;;23.23;57.91;100911.87;1805895;78;20970;-69
2021/06/23 08:49:08;;;;;;;9.00;2.75;;;;;;;23.10;57.66;100918.95;1789524;78;21076;-69
2021/06/23 08:51:36;;;;;;;9.18;3.25;;;;;;;23.02;57.63;100917.12;1803841;78;21624;-69
2021/06/23 08:54:03;;;;;;;9.53;3.58;;;;;;;23.09;57.42;100922.73;1781072;79;21464;-69
2021/06/23 08:56:31;;;;;;;8.70;3.67;;;;;;;23.27;57.39;100921.23;1779611;79;21395;-69
2021/06/23 08:58:58;;;;;;;10.25;3.33;;;;;;;23.35;57.29;100918.66;1797538;79;21483;-69
2021/06/23 09:01:25;;;;;;;7.55;3.37;;;;;;;23.51;57.08;100920.64;1812696;78;21010;-69
2021/06/23 09:04:09;;;;;;;13.88;3.83;;;;;;;23.59;56.92;100920.80;1779328;79;21662;-69
2021/06/23 09:06:51;;;;;;;11.18;3.60;;;;;;;23.66;56.71;100920.12;1781031;79;21062;-69
2021/06/23 09:09:35;;;;;;;8.85;3.98;;;;;;;23.61;56.70;100926.29;1776208;79;21058;-69
2021/06/23 09:12:07;;;;;;;12.53;3.55;;;;;;;23.78;56.70;100929.92;1783662;78;20997;-69
2021/06/23 09:14:38;;;;;;;14.38;4.00;;;;;;;23.76;56.33;100923.87;1781468;79;21010;-69
2021/06/23 09:17:15;;;;;;;6.75;2.70;;;;;;;23.73;56.21;100931.70;1757040;79;21821;-69
2021/06/23 09:19:55;;;;;;;7.25;2.52;;;;;;;23.74;56.13;100930.64;1785183;78;21017;-69
2021/06/23 09:22:39;;;;;;;18.17;3.65;;;;;;;23.93;55.99;100926.62;1776712;79;21034;-69
2021/06/23 09:25:22;;;;;;;10.28;4.03;;;;;;;24.16;55.61;100915.64;1787877;79;21491;-69
2021/06/23 09:27:51;;;;;;;20.02;4.95;;;;;;;24.39;55.33;100916.00;1811399;78;20990;-69
2021/06/23 09:30:28;;;;;;;6.90;2.95;;;;;;;24.44;54.96;100913.38;1759834;81;21701;-70
2021/06/23 09:33:25;;;;;;;9.55;3.52;;;;;;;24.36;54.70;100908.33;1791865;80;21056;-69
2021/06/23 09:36:03;;;;;;;9.15;3.27;;;;;;;24.33;54.49;100908.83;1759630;81;21446;-70
2021/06/23 09:38:48;;;;;;;29.02;5.67;;;;;;;24.17;54.46;100911.82;1792697;80;20993;-71
2021/06/23 09:41:26;;;;;;;9.63;3.62;;;;;;;24.03;54.50;100914.54;1736517;81;21510;-69
2021/06/23 09:44:05;;;;;;;5.08;2.98;;;;;;;23.63;54.49;100913.80;1742088;82;21771;-69
2021/06/23 09:46:43;;;;;;;5.62;2.95;;;;;;;23.41;54.70;100923.17;1741943;82;21474;-70
2021/06/23 09:49:17;;;;;;;7.05;3.20;;;;;;;23.52;54.71;100914.67;1741659;81;20902;-69
2021/06/23 09:51:52;;;;;;;6.87;3.40;;;;;;;23.59;54.56;100913.99;1742190;81;21495;-69
2021/06/23 09:54:27;;;;;;;11.60;3.42;;;;;;;23.62;54.33;100905.33;1726992;82;20946;-70
2021/06/23 09:57:12;;;;;;;13.62;3.37;;;;;;;23.52;54.34;100908.70;1741967;81;21874;-70
2021/06/23 09:59:49;;;;;;;9.10;3.20;;;;;;;23.65;54.36;100907.56;1760986;81;21399;-69
2021/06/23 10:02:28;;;;;;;11.33;3.20;;;;;;;24.05;54.50;100908.33;1760619;81;21475;-70
2021/06/23 10:04:56;;;;;;;8.30;3.40;;;;;;;24.14;54.34;100906.03;1760276;81;21026;-69
2021/06/23 10:07:46;;;;;;;12.78;3.17;;;;;;;24.06;54.31;100906.43;1761066;81;20930;-69
2021/06/23 10:10:16;;;;;;;12.45;3.37;;;;;;;24.04;54.34;100906.66;1760939;81;22437;-69
2021/06/23 10:12:46;;;;;;;7.55;2.72;;;;;;;24.00;54.40;100904.14;1760871;81;20977;-69
2021/06/23 10:15:14;;;;;;;13.60;3.42;;;;;;;24.01;54.32;100901.71;1761060;81;20997;-69
2021/06/23 10:17:42;;;;;;;9.40;3.15;;;;;;;24.09;54.26;100904.04;1761069;81;21278;-70
2021/06/23 10:20:10;;;;;;;6.90;3.10;;;;;;;24.26;54.19;100910.89;1760932;81;20997;-69
2021/06/23 10:22:39;;;;;;;8.08;3.42;;;;;;;24.14;54.04;100913.68;1761102;81;21841;-69
2021/06/23 10:25:07;;;;;;;;;;;;;;;24.00;54.08;100916.39;1763535;81;21010;-70
2021/06/23 10:27:35;;;;;;;8.93;3.35;;;;;;;23.89;53.98;100924.09;1761067;81;20556;-70
2021/06/23 10:30:04;;;;;;;5.05;2.70;;;;;;;23.79;53.96;100928.00;1761044;81;21006;-69
2021/06/23 10:32:31;;;;;;;10.23;3.37;;;;;;;23.73;54.00;100922.16;1761142;81;21022;-70
2021/06/23 10:34:58;;;;;;;6.65;3.22;;;;;;;23.90;54.10;100923.03;1760810;81;21732;-70
2021/06/23 10:37:25;;;;;;;8.25;2.75;;;;;;;24.16;54.00;100919.73;1760930;81;20892;-70
2021/06/23 10:39:52;;;;;;;8.83;2.37;;;;;;;24.20;53.89;100918.17;1760711;81;20987;-70
2021/06/23 10:42:22;;;;;;;5.67;2.30;;;;;;;24.14;53.78;100920.50;1765958;81;20965;-70
2021/06/23 10:44:54;;;;;;;6.47;2.55;;;;;;;24.01;53.75;100918.06;1770027;80;20983;-70
2021/06/23 10:47:41;;;;;;;13.48;3.42;;;;;;;23.97;53.70;100920.15;1792591;80;22381;-69
2021/06/23 10:50:31;;;;;;;9.63;3.10;;;;;;;23.76;53.52;100921.67;1764691;81;20896;-69
2021/06/23 10:52:58;;;;;;;10.10;2.67;;;;;;;23.48;53.54;100923.03;1792582;79;21386;-69
2021/06/23 10:55:31;;;;;;;8.05;3.12;;;;;;;23.40;53.61;100923.67;1761137;81;21025;-69
2021/06/23 10:58:07;;;;;;;9.20;2.60;;;;;;;23.35;53.71;100920.03;1759804;81;21462;-69
2021/06/23 11:00:34;;;;;;;10.80;2.85;;;;;;;23.47;53.74;100924.92;1792700;80;22358;-69
2021/06/23 11:03:12;;;;;;;5.47;3.27;;;;;;;23.51;53.72;100917.92;1759520;81;20974;-69
2021/06/23 11:05:46;;;;;;;10.20;2.83;;;;;;;23.55;53.65;100919.63;1792748;80;20970;-69
2021/06/23 11:08:37;;;;;;;9.58;2.70;;;;;;;23.53;53.53;100918.53;1757520;81;21013;-69
2021/06/23 11:11:07;;;;;;;10.13;3.02;;;;;;;23.51;53.53;100917.09;1792496;80;20994;-70
2021/06/23 11:13:37;;;;;;;8.25;2.58;;;;;;;23.50;53.59;100911.37;1759657;81;21635;-69
2021/06/23 11:16:06;;;;;;;14.23;2.80;;;;;;;23.45;53.72;100912.09;1792493;80;20966;-70
2021/06/23 11:18:38;;;;;;;10.45;4.12;;;;;;;23.45;53.76;100912.63;1764825;81;20910;-69
2021/06/23 11:21:18;;;;;;;13.60;3.25;;;;;;;23.43;53.72;100912.05;1792507;79;21433;-69
2021/06/23 11:23:58;;;;;;;6.80;2.80;;;;;;;23.28;53.73;100909.28;1759619;81;21009;-70
2021/06/23 11:26:30;;;;;;;8.85;2.85;;;;;;;23.10;53.80;100914.87;1792971;80;21486;-69
2021/06/23 11:29:13;;;;;;;7.15;2.80;;;;;;;23.14;53.93;100917.95;1759639;81;21311;-69
2021/06/23 11:31:44;;;;;;;9.38;3.00;;;;;;;23.11;53.94;100919.79;1791442;80;20981;-69
2021/06/23 11:34:11;;;;;;;6.78;2.62;;;;;;;23.15;54.02;100924.49;1791953;80;20966;-69
2021/06/23 11:36:38;;;;;;;7.05;2.20;;;;;;;23.20;54.02;100912.37;1764559;81;21016;-69
2021/06/23 11:39:06;;;;;;;8.33;2.72;;;;;;;23.38;54.05;100909.48;1792287;80;22450;-69
2021/06/23 11:41:33;;;;;;;10.10;3.02;;;;;;;23.80;54.02;100914.67;1759724;81;21002;-69
2021/06/23 11:44:00;;;;;;;5.72;2.80;;;;;;;24.01;53.62;100915.87;1758309;81;20990;-69
2021/06/23 11:46:27;;;;;;;8.50;3.00;;;;;;;24.14;53.54;100908.23;1742716;81;21433;-70
2021/06/23 11:48:54;;;;;;;5.70;3.15;;;;;;;24.09;53.41;100908.66;1742877;82;20932;-69